YCES weather

Ceres Airport
Victoria, Australia

Public forecast

Using degrees Celsius for public forecast. Weather courtesy of forecast.io.

METAR (pilot weather report)

Closest report is Avalon Airport, 11.9 nm (22.1 km) ENE. Retrieved 2018/12/11 21:30 UTC (8 minutes ago):

YMAV 112130Z AUTO 07008KT 9999 // NCD 19/15 Q1009 RF00.0/000.0

TAF (pilot weather forecast)

Closest forecast is Avalon Airport, 11.9 nm (22.1 km) ENE. Retrieved 2018/12/11 18:00 UTC (4 hours ago):

TAF YMAV 111703Z 1118/1218 31007KT 9999 FEW012 FM112300 03012KT CAVOK BECMG 1207/1209 07008KT CAVOK PROB30 INTER 1204/1209 VRB25G40KT 2000 TSRA BKN020 SCT060CB